Terminal Aerodrome Forecast
Issued by NWS Pocatello, ID

Home | Current Version | Previous Version | Text Only | Print | Product List | Glossary On
Versions: 1 2 3 4 5 6 7 8 9 10 11 12
000
FTUS45 KPIH 052336
TAFIDA
TAF
KIDA 052336Z 0600/0624 21015KT P6SM VCTS BKN070CB BKN100 OVC150
     FM060200 VRB06KT P6SM VCSH SCT070 BKN110 BKN160
     FM060900 VRB05KT P6SM -SHRA SCT025 BKN050 OVC080
     FM062000 23011KT P6SM VCTS FEW060 BKN080CB OVC140=

USA.gov is the U.S. government's official web portal to all federal, state and local government web resources and services.